createdAt,value
2019-05-21T00:01:31.772Z,33.20
2019-05-21T00:04:00.862Z,33.33
2019-05-21T00:06:29.718Z,31.77
2019-05-21T00:08:58.778Z,30.33
2019-05-21T00:11:27.788Z,29.40
2019-05-21T00:13:56.591Z,29.00
2019-05-21T00:16:25.650Z,26.12
2019-05-21T00:18:54.410Z,26.17
2019-05-21T00:21:26.115Z,23.13
2019-05-21T00:23:55.163Z,21.67
2019-05-21T00:26:24.149Z,21.97
2019-05-21T00:29:29.139Z,20.30
2019-05-21T00:32:34.430Z,20.00
2019-05-21T00:35:46.522Z,18.60
2019-05-21T00:38:52.215Z,19.27
2019-05-21T00:41:57.699Z,19.97
2019-05-21T00:44:26.551Z,23.00
2019-05-21T00:46:55.411Z,22.70
2019-05-21T00:49:24.426Z,22.60
2019-05-21T00:52:06.536Z,22.47
2019-05-21T00:54:24.512Z,21.80
2019-05-21T00:56:53.607Z,23.10
2019-05-21T00:59:22.627Z,21.40
2019-05-21T01:01:54.532Z,22.47
2019-05-21T01:04:23.679Z,22.07
2019-05-21T01:06:53.068Z,24.70
2019-05-21T01:09:22.130Z,24.83
2019-05-21T01:11:51.977Z,23.30
2019-05-21T01:14:20.917Z,22.13
2019-05-21T01:16:50.199Z,23.35
2019-05-21T01:19:19.035Z,22.47
2019-05-21T01:21:47.886Z,22.50
2019-05-21T01:24:17.304Z,22.80
2019-05-21T01:26:46.069Z,22.50
2019-05-21T01:29:15.123Z,24.80
2019-05-21T01:31:43.881Z,22.43
2019-05-21T01:34:12.642Z,24.35
2019-05-21T01:36:41.476Z,24.00
2019-05-21T01:39:10.258Z,23.15
2019-05-21T01:41:39.046Z,21.10
2019-05-21T01:44:08.086Z,22.45
2019-05-21T01:46:36.870Z,24.80
2019-05-21T01:49:05.882Z,23.17
2019-05-21T01:51:34.730Z,22.13
2019-05-21T01:54:03.510Z,22.10
2019-05-21T01:56:32.838Z,24.20
2019-05-21T01:59:01.949Z,23.13
2019-05-21T02:01:36.821Z,21.83
2019-05-21T02:04:05.980Z,20.00
2019-05-21T02:06:34.834Z,21.33
2019-05-21T02:09:05.242Z,20.00
2019-05-21T02:11:34.965Z,20.40
2019-05-21T02:14:04.135Z,19.13
2019-05-21T02:16:32.912Z,20.93
2019-05-21T02:19:01.688Z,20.30
2019-05-21T02:21:30.735Z,19.87
2019-05-21T02:23:59.485Z,20.23
2019-05-21T02:26:28.535Z,19.80
2019-05-21T02:28:57.341Z,20.03
2019-05-21T02:31:26.117Z,21.13
2019-05-21T02:33:55.789Z,21.50
2019-05-21T02:36:24.596Z,19.10
2019-05-21T02:38:53.418Z,20.90
2019-05-21T02:41:22.482Z,17.20
2019-05-21T02:43:51.478Z,17.33
2019-05-21T02:46:20.819Z,16.40
2019-05-21T02:48:49.679Z,16.40
2019-05-21T02:51:18.555Z,13.10
2019-05-21T02:53:47.554Z,14.93
2019-05-21T02:56:16.338Z,13.80
2019-05-21T02:58:45.177Z,16.43
2019-05-21T03:01:33.382Z,14.33
2019-05-21T03:04:09.011Z,13.60
2019-05-21T03:06:38.032Z,14.33
2019-05-21T03:09:07.247Z,14.27
2019-05-21T03:11:36.016Z,14.03
2019-05-21T03:14:05.130Z,12.83
2019-05-21T03:16:34.393Z,12.83
2019-05-21T03:19:03.180Z,12.13
2019-05-21T03:21:32.401Z,11.57
2019-05-21T03:24:02.160Z,11.60
2019-05-21T03:26:31.013Z,12.53
2019-05-21T03:29:00.107Z,15.90
2019-05-21T03:31:28.953Z,14.60
2019-05-21T03:33:57.915Z,16.47
2019-05-21T03:36:33.377Z,14.45
2019-05-21T03:38:59.492Z,15.73
2019-05-21T03:41:28.503Z,15.48
2019-05-21T03:43:57.286Z,16.97
2019-05-21T03:46:26.675Z,18.30
2019-05-21T03:48:55.838Z,18.53
2019-05-21T03:51:26.043Z,18.07
2019-05-21T03:53:55.054Z,17.60
2019-05-21T03:56:24.110Z,18.93
2019-05-21T03:58:53.130Z,17.37
2019-05-21T04:01:22.215Z,18.30
2019-05-21T04:03:54.500Z,17.92
2019-05-21T04:06:28.956Z,19.40
2019-05-21T04:08:57.943Z,17.80
2019-05-21T04:11:26.706Z,18.77
2019-05-21T04:13:55.743Z,17.80
2019-05-21T04:16:43.670Z,17.33
2019-05-21T04:19:25.486Z,17.10
2019-05-21T04:21:54.262Z,17.53
2019-05-21T04:24:23.275Z,17.40
2019-05-21T04:26:52.047Z,16.00
2019-05-21T04:29:20.795Z,16.67
2019-05-21T04:31:50.124Z,14.30
2019-05-21T04:34:19.155Z,14.73
2019-05-21T04:36:47.932Z,13.90
2019-05-21T04:39:17.033Z,14.00
2019-05-21T04:41:46.291Z,13.00
2019-05-21T04:44:15.043Z,13.63
2019-05-21T04:46:43.811Z,13.90
2019-05-21T04:49:12.860Z,14.13
2019-05-21T04:51:41.876Z,14.23
2019-05-21T04:54:10.640Z,14.50
2019-05-21T04:56:39.689Z,14.80
2019-05-21T04:59:08.446Z,14.10
2019-05-21T05:01:37.203Z,14.30
2019-05-21T05:04:06.409Z,14.80
2019-05-21T05:06:35.171Z,14.03
2019-05-21T05:09:05.034Z,14.83
2019-05-21T05:11:36.140Z,14.03
2019-05-21T05:14:05.096Z,13.93
2019-05-21T05:16:33.870Z,14.63
2019-05-21T05:19:02.623Z,15.18
2019-05-21T05:21:31.674Z,15.37
2019-05-21T05:24:00.447Z,17.00
2019-05-21T05:26:29.230Z,17.37
2019-05-21T05:28:58.494Z,17.57
2019-05-21T05:31:27.300Z,17.60
2019-05-21T05:33:56.092Z,17.77
2019-05-21T05:36:24.833Z,18.07
2019-05-21T05:38:54.098Z,19.50
2019-05-21T05:41:23.163Z,21.00
2019-05-21T05:43:52.177Z,21.70
2019-05-21T05:46:20.943Z,19.00
2019-05-21T05:49:04.372Z,21.27
2019-05-21T05:51:33.267Z,21.83
2019-05-21T05:54:02.058Z,22.27
2019-05-21T05:56:31.018Z,23.20
2019-05-21T05:58:59.943Z,24.07
2019-05-21T06:01:31.105Z,23.80
2019-05-21T06:04:00.373Z,24.03
2019-05-21T06:06:29.530Z,24.90
2019-05-21T06:08:58.871Z,25.03
2019-05-21T06:11:27.964Z,28.03
2019-05-21T06:13:56.983Z,26.00
2019-05-21T06:16:26.030Z,26.30
2019-05-21T06:18:55.395Z,27.03
2019-05-21T06:21:24.196Z,27.67
2019-05-21T06:23:53.246Z,27.47
2019-05-21T06:26:22.092Z,27.30
2019-05-21T06:28:50.966Z,29.87
2019-05-21T06:31:21.059Z,28.65
2019-05-21T06:33:49.938Z,29.20
2019-05-21T06:36:18.857Z,27.35
2019-05-21T06:38:47.603Z,28.93
2019-05-21T06:41:16.535Z,29.83
2019-05-21T06:43:45.427Z,30.70
2019-05-21T06:46:14.503Z,29.40
2019-05-21T06:48:43.270Z,30.37
2019-05-21T06:51:12.010Z,31.73
2019-05-21T06:53:40.781Z,32.15
2019-05-21T06:56:09.559Z,34.70
2019-05-21T06:58:39.626Z,30.10
2019-05-21T07:01:08.832Z,32.10
2019-05-21T07:03:37.907Z,31.87
2019-05-21T07:06:06.722Z,33.00
2019-05-21T07:08:35.734Z,32.13
2019-05-21T07:11:04.946Z,32.30
2019-05-21T07:13:33.793Z,34.80
2019-05-21T07:16:02.566Z,32.97
2019-05-21T07:18:31.648Z,31.73
2019-05-21T07:21:00.759Z,33.00
2019-05-21T07:23:29.586Z,33.10
2019-05-21T07:25:58.869Z,33.60
2019-05-21T07:28:28.220Z,35.50
2019-05-21T07:30:57.568Z,34.40
2019-05-21T07:33:43.560Z,33.50
2019-05-21T07:36:12.963Z,33.00
2019-05-21T07:38:52.789Z,35.83
2019-05-21T07:41:12.927Z,37.20
2019-05-21T07:43:41.771Z,36.70
2019-05-21T07:46:10.667Z,36.90
2019-05-21T07:48:39.924Z,36.67
2019-05-21T07:51:08.713Z,36.77
2019-05-21T07:53:37.719Z,35.03
2019-05-21T07:56:06.803Z,36.57
2019-05-21T07:58:35.539Z,36.50
2019-05-21T08:01:04.389Z,37.03
2019-05-21T08:03:33.714Z,37.93
2019-05-21T08:06:02.797Z,38.70
2019-05-21T08:08:31.633Z,38.10
2019-05-21T08:11:00.503Z,39.50
2019-05-21T08:13:29.294Z,39.53
2019-05-21T08:15:58.079Z,39.97
2019-05-21T08:18:26.846Z,38.30
2019-05-21T08:20:56.593Z,37.53
2019-05-21T08:23:25.370Z,40.07
2019-05-21T08:25:54.434Z,37.50
2019-05-21T08:28:23.196Z,38.40
2019-05-21T08:30:51.993Z,38.67
2019-05-21T08:33:21.051Z,36.70
2019-05-21T08:35:49.816Z,37.40
2019-05-21T08:38:18.828Z,35.23
2019-05-21T08:40:47.998Z,37.53
2019-05-21T08:43:17.039Z,35.20
2019-05-21T08:45:46.086Z,37.40
2019-05-21T08:48:15.073Z,33.00
2019-05-21T08:50:43.849Z,34.60
2019-05-21T08:53:12.766Z,34.90
2019-05-21T08:55:41.553Z,34.27
2019-05-21T08:58:10.625Z,34.37
2019-05-21T09:00:39.409Z,32.73
2019-05-21T09:03:09.532Z,34.37
2019-05-21T09:05:38.527Z,33.60
2019-05-21T09:08:07.665Z,33.18
2019-05-21T09:10:41.197Z,34.83
2019-05-21T09:13:09.974Z,31.27
2019-05-21T09:15:39.103Z,30.73
2019-05-21T09:18:08.022Z,30.45
2019-05-21T09:20:36.846Z,30.20
2019-05-21T09:23:05.673Z,30.17
2019-05-21T09:25:34.464Z,31.60
2019-05-21T09:28:03.303Z,32.37
2019-05-21T09:30:32.069Z,30.60
2019-05-21T09:33:01.098Z,32.03
2019-05-21T09:35:29.850Z,29.57
2019-05-21T09:37:58.602Z,30.30
2019-05-21T09:40:28.227Z,29.80
2019-05-21T09:42:56.995Z,28.50
2019-05-21T09:45:27.953Z,27.87
2019-05-21T09:47:56.687Z,27.70
2019-05-21T09:50:25.885Z,28.63
2019-05-21T09:52:54.696Z,25.50
2019-05-21T09:55:24.787Z,26.13
2019-05-21T09:58:05.695Z,25.03
2019-05-21T10:00:52.410Z,25.93
2019-05-21T10:03:22.910Z,25.90
2019-05-21T10:05:52.029Z,23.90
2019-05-21T10:08:21.043Z,24.87
2019-05-21T10:10:53.311Z,25.03
2019-05-21T10:13:22.149Z,23.30
2019-05-21T10:15:51.002Z,24.13
2019-05-21T10:18:20.026Z,22.40
2019-05-21T10:20:48.786Z,24.90
2019-05-21T10:23:19.160Z,23.23
2019-05-21T10:25:47.900Z,21.87
2019-05-21T10:28:16.942Z,24.07
2019-05-21T10:30:45.989Z,22.33
2019-05-21T10:33:14.832Z,23.03
2019-05-21T10:35:46.615Z,22.42
2019-05-21T10:38:15.361Z,22.50
2019-05-21T10:40:44.134Z,21.48
2019-05-21T10:43:13.199Z,21.00
2019-05-21T10:45:42.351Z,21.87
2019-05-21T10:48:11.183Z,20.97
2019-05-21T10:50:40.230Z,20.50
2019-05-21T10:53:09.563Z,20.07
2019-05-21T10:55:38.432Z,19.47
2019-05-21T10:58:07.521Z,19.67
2019-05-21T11:00:36.908Z,21.60
2019-05-21T11:03:13.442Z,20.92
2019-05-21T11:05:44.945Z,19.93
2019-05-21T11:08:23.691Z,20.67
2019-05-21T11:10:44.331Z,21.70
2019-05-21T11:13:13.310Z,22.20
2019-05-21T11:15:42.147Z,21.97
2019-05-21T11:18:12.210Z,20.90
2019-05-21T11:20:41.536Z,21.00
2019-05-21T11:23:10.570Z,23.03
2019-05-21T11:25:40.344Z,23.75
2019-05-21T11:28:09.335Z,23.03
2019-05-21T11:30:38.091Z,23.95
2019-05-21T11:33:07.394Z,22.90
2019-05-21T11:35:36.704Z,24.57
2019-05-21T11:38:05.539Z,23.87
2019-05-21T11:40:34.642Z,25.40
2019-05-21T11:43:03.395Z,26.43
2019-05-21T11:45:33.150Z,24.43
2019-05-21T11:48:02.210Z,23.30
2019-05-21T11:50:31.078Z,25.33
2019-05-21T11:52:59.841Z,24.03
2019-05-21T11:55:28.610Z,23.80
2019-05-21T11:57:57.346Z,23.52
2019-05-21T12:00:28.010Z,23.77
2019-05-21T12:02:57.087Z,23.13
2019-05-21T12:05:26.149Z,23.00
2019-05-21T12:07:54.966Z,22.20
2019-05-21T12:10:23.770Z,23.83
2019-05-21T12:12:52.846Z,22.80
2019-05-21T12:15:21.764Z,22.20
2019-05-21T12:17:50.506Z,20.50
2019-05-21T12:20:35.201Z,22.20
2019-05-21T12:22:50.206Z,20.43
2019-05-21T12:25:18.944Z,20.43
2019-05-21T12:27:47.697Z,22.73
2019-05-21T12:30:16.931Z,19.10
2019-05-21T12:32:45.745Z,18.17
2019-05-21T12:35:14.932Z,18.73
2019-05-21T12:37:43.916Z,19.02
2019-05-21T12:40:13.106Z,18.47
2019-05-21T12:42:42.208Z,18.32
2019-05-21T12:45:11.293Z,17.80
2019-05-21T12:47:40.290Z,16.17
2019-05-21T12:50:10.722Z,16.30
2019-05-21T12:52:39.986Z,14.63
2019-05-21T12:55:09.106Z,15.87
2019-05-21T12:57:37.842Z,14.93
2019-05-21T13:00:09.066Z,13.50
2019-05-21T13:02:37.825Z,13.90
2019-05-21T13:05:11.207Z,15.50
2019-05-21T13:07:37.968Z,13.80
2019-05-21T13:10:07.161Z,12.82
2019-05-21T13:12:35.922Z,13.00
2019-05-21T13:15:05.928Z,14.07
2019-05-21T13:17:34.734Z,13.97
2019-05-21T13:20:04.743Z,14.70
2019-05-21T13:22:33.712Z,16.90
2019-05-21T13:25:02.787Z,15.00
2019-05-21T13:27:31.541Z,13.97
2019-05-21T13:30:00.303Z,12.37
2019-05-21T13:32:29.278Z,12.00
2019-05-21T13:34:58.054Z,11.27
2019-05-21T13:37:26.802Z,12.50
2019-05-21T13:39:55.941Z,12.57
2019-05-21T13:42:24.995Z,13.23
2019-05-21T13:44:54.016Z,11.20
2019-05-21T13:47:23.070Z,12.57
2019-05-21T13:49:51.817Z,12.50
2019-05-21T13:52:20.612Z,12.40
2019-05-21T13:54:49.419Z,11.20
2019-05-21T13:57:18.244Z,13.00
2019-05-21T13:59:47.493Z,12.73
2019-05-21T14:02:18.317Z,14.07
2019-05-21T14:04:47.606Z,12.90
2019-05-21T14:07:16.711Z,13.13
2019-05-21T14:09:45.869Z,13.47
2019-05-21T14:12:14.986Z,11.77
2019-05-21T14:14:44.066Z,12.00
2019-05-21T14:17:13.124Z,11.97
2019-05-21T14:19:42.198Z,12.37
2019-05-21T14:22:11.082Z,13.03
2019-05-21T14:24:40.249Z,14.30
2019-05-21T14:27:09.078Z,15.40
2019-05-21T14:29:38.082Z,15.77
2019-05-21T14:32:07.061Z,15.83
2019-05-21T14:34:36.154Z,16.33
2019-05-21T14:37:05.347Z,16.90
2019-05-21T14:39:34.157Z,15.50
2019-05-21T14:42:02.912Z,16.37
2019-05-21T14:44:32.135Z,19.20
2019-05-21T14:47:00.879Z,19.03
2019-05-21T14:49:29.877Z,18.53
2019-05-21T14:51:58.650Z,19.17
2019-05-21T14:54:27.518Z,20.43
2019-05-21T14:56:56.550Z,20.60
2019-05-21T14:59:25.294Z,20.50
2019-05-21T15:01:54.435Z,20.77
2019-05-21T15:04:24.527Z,19.30
2019-05-21T15:06:53.590Z,21.10
2019-05-21T15:09:22.359Z,21.10
2019-05-21T15:11:51.371Z,20.67
2019-05-21T15:14:20.302Z,22.67
2019-05-21T15:16:49.149Z,22.87
2019-05-21T15:19:18.056Z,20.43
2019-05-21T15:21:50.378Z,23.00
2019-05-21T15:24:19.195Z,23.10
2019-05-21T15:26:47.984Z,21.33
2019-05-21T15:29:16.763Z,23.03
2019-05-21T15:31:45.678Z,24.50
2019-05-21T15:34:14.506Z,24.33
2019-05-21T15:36:43.531Z,24.60
2019-05-21T15:39:12.598Z,22.90
2019-05-21T15:41:41.795Z,23.77
2019-05-21T15:44:10.570Z,22.67
2019-05-21T15:46:48.510Z,24.00
2019-05-21T15:49:09.770Z,23.43
2019-05-21T15:51:38.971Z,22.83
2019-05-21T15:54:08.117Z,23.20
2019-05-21T15:56:36.933Z,24.17
2019-05-21T15:59:06.115Z,24.03
2019-05-21T16:01:35.393Z,24.93
2019-05-21T16:04:04.300Z,23.23
2019-05-21T16:06:33.593Z,24.90
2019-05-21T16:09:02.352Z,24.17
2019-05-21T16:11:31.197Z,24.77
2019-05-21T16:14:00.491Z,25.43
2019-05-21T16:16:29.687Z,25.80
2019-05-21T16:18:58.687Z,25.00
2019-05-21T16:21:27.445Z,23.52
2019-05-21T16:23:56.418Z,24.90
2019-05-21T16:26:25.434Z,24.00
2019-05-21T16:28:54.431Z,24.43
2019-05-21T16:31:23.436Z,23.83
2019-05-21T16:33:52.423Z,23.30
2019-05-21T16:36:21.430Z,21.93
2019-05-21T16:38:50.206Z,22.22
2019-05-21T16:41:19.194Z,22.00
2019-05-21T16:43:48.278Z,22.40
2019-05-21T16:46:17.256Z,22.73
2019-05-21T16:48:46.221Z,22.65
2019-05-21T16:51:15.063Z,23.47
2019-05-21T16:53:44.029Z,25.10
2019-05-21T16:56:13.654Z,25.43
2019-05-21T16:58:42.674Z,24.30
2019-05-21T17:01:12.018Z,24.53
2019-05-21T17:03:41.126Z,28.30
2019-05-21T17:06:10.372Z,28.30
2019-05-21T17:08:39.583Z,28.40
2019-05-21T17:11:08.882Z,25.73
2019-05-21T17:13:39.170Z,26.17
2019-05-21T17:16:08.383Z,27.03
2019-05-21T17:18:37.353Z,25.17
2019-05-21T17:21:06.339Z,25.17
2019-05-21T17:23:35.240Z,26.70
2019-05-21T17:26:04.078Z,26.70
2019-05-21T17:28:33.046Z,27.97
2019-05-21T17:31:01.887Z,27.10
2019-05-21T17:33:30.901Z,27.87
2019-05-21T17:35:59.942Z,29.10
2019-05-21T17:38:29.516Z,29.20
2019-05-21T17:40:58.308Z,27.53
2019-05-21T17:43:27.064Z,27.40
2019-05-21T17:45:58.084Z,27.73
2019-05-21T17:48:26.914Z,27.57
2019-05-21T17:50:55.911Z,29.35
2019-05-21T17:53:25.255Z,28.00
2019-05-21T17:55:54.018Z,28.37
2019-05-21T17:58:23.001Z,30.63
2019-05-21T18:00:55.616Z,34.27
2019-05-21T18:03:24.653Z,30.90
2019-05-21T18:05:55.278Z,28.77
2019-05-21T18:08:24.382Z,27.30
2019-05-21T18:10:53.687Z,26.73
2019-05-21T18:13:23.490Z,27.23
2019-05-21T18:15:52.604Z,27.40
2019-05-21T18:18:22.202Z,26.83
2019-05-21T18:20:51.069Z,27.33
2019-05-21T18:23:20.038Z,26.70
2019-05-21T18:25:52.514Z,26.77
2019-05-21T18:28:21.596Z,28.07
2019-05-21T18:30:51.160Z,28.60
2019-05-21T18:33:20.206Z,28.27
2019-05-21T18:35:50.344Z,30.77
2019-05-21T18:38:19.214Z,29.50
2019-05-21T18:40:47.974Z,28.63
2019-05-21T18:43:17.311Z,29.67
2019-05-21T18:45:46.329Z,28.87
2019-05-21T18:48:15.514Z,29.67
2019-05-21T18:50:44.330Z,29.50
2019-05-21T18:53:13.426Z,28.90
2019-05-21T18:55:43.578Z,29.60
2019-05-21T18:58:16.450Z,33.07
2019-05-21T19:00:43.850Z,29.27
2019-05-21T19:03:13.590Z,30.93
2019-05-21T19:05:42.802Z,31.97
2019-05-21T19:08:11.912Z,31.42
2019-05-21T19:10:40.974Z,32.57
2019-05-21T19:13:10.155Z,31.93
2019-05-21T19:15:40.769Z,31.60
2019-05-21T19:18:09.554Z,33.27
2019-05-21T19:20:38.724Z,29.30
2019-05-21T19:23:08.821Z,31.10
2019-05-21T19:25:37.958Z,32.20
2019-05-21T19:28:06.917Z,32.37
2019-05-21T19:30:35.976Z,32.20
2019-05-21T19:33:04.943Z,32.37
2019-05-21T19:35:34.034Z,31.67
2019-05-21T19:38:02.896Z,32.00
2019-05-21T19:40:31.910Z,31.73
2019-05-21T19:43:00.778Z,31.40
2019-05-21T19:45:31.500Z,31.80
2019-05-21T19:48:00.551Z,33.87
2019-05-21T19:50:29.419Z,31.70
2019-05-21T19:52:58.331Z,31.70
2019-05-21T19:55:29.008Z,32.57
2019-05-21T19:57:58.371Z,31.57
2019-05-21T20:00:30.882Z,31.65
2019-05-21T20:03:01.481Z,32.00
2019-05-21T20:05:30.508Z,31.97
2019-05-21T20:07:59.675Z,30.30
2019-05-21T20:10:28.762Z,31.33
2019-05-21T20:12:58.198Z,30.60
2019-05-21T20:15:27.233Z,29.53
2019-05-21T20:18:06.988Z,30.50
2019-05-21T20:20:27.641Z,30.20
2019-05-21T20:22:57.878Z,29.77
2019-05-21T20:25:28.472Z,31.20
2019-05-21T20:27:57.674Z,29.17
2019-05-21T20:30:27.899Z,29.83
2019-05-21T20:32:57.582Z,30.97
2019-05-21T20:35:29.830Z,29.30
2019-05-21T20:37:59.562Z,30.27
2019-05-21T20:40:28.531Z,32.30
2019-05-21T20:42:57.654Z,30.92
2019-05-21T20:45:27.866Z,31.27
2019-05-21T20:47:57.931Z,31.20
2019-05-21T20:50:27.239Z,31.93
2019-05-21T20:52:58.567Z,30.23
2019-05-21T20:55:27.903Z,28.47
2019-05-21T20:57:56.830Z,31.50
2019-05-21T21:00:41.247Z,31.20
2019-05-21T21:03:11.664Z,30.23
2019-05-21T21:05:41.542Z,32.30
2019-05-21T21:08:10.982Z,30.67
2019-05-21T21:10:39.838Z,29.82
2019-05-21T21:13:11.657Z,29.40
2019-05-21T21:15:40.470Z,30.35
2019-05-21T21:18:09.913Z,29.90
2019-05-21T21:20:39.615Z,28.63
2019-05-21T21:23:08.403Z,30.10
2019-05-21T21:25:37.391Z,28.23
2019-05-21T21:28:06.962Z,28.20
2019-05-21T21:30:36.591Z,27.63
2019-05-21T21:33:07.107Z,28.50
2019-05-21T21:35:36.347Z,28.80
2019-05-21T21:38:07.567Z,29.00
2019-05-21T21:40:36.359Z,28.77
2019-05-21T21:43:07.963Z,26.60
2019-05-21T21:45:36.881Z,28.10
2019-05-21T21:48:06.155Z,28.60
2019-05-21T21:50:35.291Z,29.47
2019-05-21T21:53:04.558Z,29.00
2019-05-21T21:55:33.376Z,30.27
2019-05-21T21:58:02.804Z,30.50
2019-05-21T22:01:26.172Z,30.07
2019-05-21T22:03:59.411Z,28.80
2019-05-21T22:06:29.889Z,31.47
2019-05-21T22:08:59.570Z,31.47
2019-05-21T22:11:30.921Z,30.07
2019-05-21T22:14:00.557Z,31.07
2019-05-21T22:16:29.729Z,31.53
2019-05-21T22:18:58.698Z,30.27
2019-05-21T22:21:27.718Z,31.42
2019-05-21T22:23:56.585Z,30.60
2019-05-21T22:26:25.517Z,31.60
2019-05-21T22:28:54.698Z,31.57
2019-05-21T22:31:23.711Z,30.80
2019-05-21T22:33:52.718Z,31.90
2019-05-21T22:36:22.167Z,31.00
2019-05-21T22:38:51.350Z,30.27
2019-05-21T22:41:20.481Z,30.43
2019-05-21T22:43:49.538Z,31.37
2019-05-21T22:46:18.878Z,31.90
2019-05-21T22:48:47.982Z,30.23
2019-05-21T22:51:16.755Z,30.00
2019-05-21T22:53:45.850Z,31.13
2019-05-21T22:56:14.673Z,30.20
2019-05-21T22:58:43.423Z,30.60
2019-05-21T23:01:12.573Z,32.03
2019-05-21T23:03:41.637Z,30.60
2019-05-21T23:06:10.665Z,29.50
2019-05-21T23:08:39.830Z,30.50
2019-05-21T23:11:09.089Z,31.90
2019-05-21T23:13:38.384Z,30.30
2019-05-21T23:16:08.477Z,32.15
2019-05-21T23:18:38.826Z,31.20
2019-05-21T23:21:09.366Z,30.97
2019-05-21T23:23:40.086Z,30.80
2019-05-21T23:26:09.454Z,31.50
2019-05-21T23:28:39.970Z,30.20
2019-05-21T23:31:09.623Z,30.57
2019-05-21T23:33:38.607Z,28.67
2019-05-21T23:36:08.375Z,29.87
2019-05-21T23:38:37.527Z,31.80
2019-05-21T23:41:07.160Z,30.70
2019-05-21T23:43:36.570Z,29.67
2019-05-21T23:46:06.387Z,31.10
2019-05-21T23:48:36.210Z,30.53
2019-05-21T23:51:05.251Z,30.30
2019-05-21T23:53:34.346Z,28.35
2019-05-21T23:56:03.325Z,31.40
2019-05-21T23:58:32.721Z,29.20
